sensor_id;sensor_type;location;lat;lon;timestamp;P1;durP1;ratioP1;P2;durP2;ratioP2
15104;SDS011;7653;48.994;9.212;2022-10-16T00:01:06;1.50;;;1.37;;
15104;SDS011;7653;48.994;9.212;2022-10-16T00:03:31;2.17;;;1.40;;
15104;SDS011;7653;48.994;9.212;2022-10-16T00:05:58;3.50;;;1.80;;
15104;SDS011;7653;48.994;9.212;2022-10-16T00:08:27;1.77;;;1.40;;
15104;SDS011;7653;48.994;9.212;2022-10-16T00:10:58;3.27;;;1.40;;
15104;SDS011;7653;48.994;9.212;2022-10-16T00:13:25;3.93;;;1.50;;
15104;SDS011;7653;48.994;9.212;2022-10-16T00:15:56;2.93;;;1.47;;
15104;SDS011;7653;48.994;9.212;2022-10-16T00:18:23;1.73;;;1.53;;
15104;SDS011;7653;48.994;9.212;2022-10-16T00:21:08;3.33;;;1.60;;
15104;SDS011;7653;48.994;9.212;2022-10-16T00:23:33;1.50;;;1.40;;
15104;SDS011;7653;48.994;9.212;2022-10-16T00:26:01;1.50;;;1.30;;
15104;SDS011;7653;48.994;9.212;2022-10-16T00:28:28;4.30;;;1.57;;
15104;SDS011;7653;48.994;9.212;2022-10-16T00:30:55;2.57;;;1.50;;
15104;SDS011;7653;48.994;9.212;2022-10-16T00:33:20;1.57;;;1.47;;
15104;SDS011;7653;48.994;9.212;2022-10-16T00:35:46;2.30;;;1.40;;
15104;SDS011;7653;48.994;9.212;2022-10-16T00:38:12;3.63;;;1.40;;
15104;SDS011;7653;48.994;9.212;2022-10-16T00:40:40;3.53;;;1.37;;
15104;SDS011;7653;48.994;9.212;2022-10-16T00:48:54;1.30;;;1.20;;
15104;SDS011;7653;48.994;9.212;2022-10-16T00:51:53;3.57;;;1.47;;
15104;SDS011;7653;48.994;9.212;2022-10-16T00:54:20;1.90;;;1.27;;
15104;SDS011;7653;48.994;9.212;2022-10-16T00:56:52;2.57;;;1.50;;
15104;SDS011;7653;48.994;9.212;2022-10-16T00:59:30;5.00;;;1.40;;
15104;SDS011;7653;48.994;9.212;2022-10-16T01:01:55;1.97;;;1.30;;
15104;SDS011;7653;48.994;9.212;2022-10-16T01:04:23;3.77;;;1.50;;
15104;SDS011;7653;48.994;9.212;2022-10-16T01:09:42;1.93;;;1.40;;
15104;SDS011;7653;48.994;9.212;2022-10-16T01:17:43;4.67;;;1.70;;
15104;SDS011;7653;48.994;9.212;2022-10-16T01:28:55;2.27;;;1.30;;
15104;SDS011;7653;48.994;9.212;2022-10-16T01:31:31;2.40;;;1.70;;
15104;SDS011;7653;48.994;9.212;2022-10-16T01:36:39;3.33;;;1.60;;
15104;SDS011;7653;48.994;9.212;2022-10-16T01:39:10;3.33;;;1.67;;
15104;SDS011;7653;48.994;9.212;2022-10-16T01:41:38;2.40;;;1.37;;
15104;SDS011;7653;48.994;9.212;2022-10-16T01:44:09;4.43;;;1.50;;
15104;SDS011;7653;48.994;9.212;2022-10-16T01:46:39;3.57;;;1.40;;
15104;SDS011;7653;48.994;9.212;2022-10-16T01:49:07;2.13;;;1.70;;
15104;SDS011;7653;48.994;9.212;2022-10-16T01:51:35;4.43;;;1.47;;
15104;SDS011;7653;48.994;9.212;2022-10-16T01:54:02;2.23;;;1.63;;
15104;SDS011;7653;48.994;9.212;2022-10-16T01:56:31;2.03;;;1.60;;
15104;SDS011;7653;48.994;9.212;2022-10-16T02:01:35;2.20;;;1.83;;
15104;SDS011;7653;48.994;9.212;2022-10-16T02:04:10;2.20;;;1.57;;
15104;SDS011;7653;48.994;9.212;2022-10-16T02:06:49;3.57;;;1.70;;
15104;SDS011;7653;48.994;9.212;2022-10-16T02:09:15;1.97;;;1.70;;
15104;SDS011;7653;48.994;9.212;2022-10-16T02:11:42;3.33;;;1.50;;
15104;SDS011;7653;48.994;9.212;2022-10-16T02:14:08;3.73;;;1.77;;
15104;SDS011;7653;48.994;9.212;2022-10-16T02:16:35;1.77;;;1.57;;
15104;SDS011;7653;48.994;9.212;2022-10-16T02:19:03;3.17;;;1.60;;
15104;SDS011;7653;48.994;9.212;2022-10-16T02:24:17;2.53;;;1.60;;
15104;SDS011;7653;48.994;9.212;2022-10-16T02:26:52;2.83;;;1.60;;
15104;SDS011;7653;48.994;9.212;2022-10-16T02:29:28;3.70;;;1.40;;
15104;SDS011;7653;48.994;9.212;2022-10-16T02:31:55;3.70;;;1.60;;
15104;SDS011;7653;48.994;9.212;2022-10-16T02:34:26;4.27;;;1.60;;
15104;SDS011;7653;48.994;9.212;2022-10-16T02:36:55;2.00;;;1.60;;
15104;SDS011;7653;48.994;9.212;2022-10-16T02:39:22;2.27;;;1.30;;
15104;SDS011;7653;48.994;9.212;2022-10-16T02:41:49;2.23;;;1.63;;
15104;SDS011;7653;48.994;9.212;2022-10-16T02:44:14;2.80;;;1.80;;
15104;SDS011;7653;48.994;9.212;2022-10-16T02:46:40;2.00;;;1.70;;
15104;SDS011;7653;48.994;9.212;2022-10-16T02:49:06;3.10;;;1.60;;
15104;SDS011;7653;48.994;9.212;2022-10-16T02:51:31;2.47;;;1.83;;
15104;SDS011;7653;48.994;9.212;2022-10-16T02:53:57;3.80;;;1.73;;
15104;SDS011;7653;48.994;9.212;2022-10-16T02:56:22;3.77;;;1.60;;
15104;SDS011;7653;48.994;9.212;2022-10-16T02:58:48;2.77;;;1.50;;
15104;SDS011;7653;48.994;9.212;2022-10-16T03:01:14;5.40;;;1.77;;
15104;SDS011;7653;48.994;9.212;2022-10-16T03:03:41;1.87;;;1.40;;
15104;SDS011;7653;48.994;9.212;2022-10-16T03:06:07;3.27;;;1.70;;
15104;SDS011;7653;48.994;9.212;2022-10-16T03:08:33;1.50;;;1.40;;
15104;SDS011;7653;48.994;9.212;2022-10-16T03:10:58;3.47;;;1.50;;
15104;SDS011;7653;48.994;9.212;2022-10-16T03:13:24;2.47;;;1.80;;
15104;SDS011;7653;48.994;9.212;2022-10-16T03:15:50;2.03;;;1.40;;
15104;SDS011;7653;48.994;9.212;2022-10-16T03:18:15;3.23;;;1.47;;
15104;SDS011;7653;48.994;9.212;2022-10-16T03:20:42;2.67;;;1.53;;
15104;SDS011;7653;48.994;9.212;2022-10-16T03:23:08;3.17;;;1.50;;
15104;SDS011;7653;48.994;9.212;2022-10-16T03:25:33;2.77;;;1.70;;
15104;SDS011;7653;48.994;9.212;2022-10-16T03:27:59;3.20;;;1.50;;
15104;SDS011;7653;48.994;9.212;2022-10-16T03:30:25;3.07;;;1.40;;
15104;SDS011;7653;48.994;9.212;2022-10-16T03:32:50;2.87;;;1.37;;
15104;SDS011;7653;48.994;9.212;2022-10-16T03:35:19;3.67;;;1.43;;
15104;SDS011;7653;48.994;9.212;2022-10-16T03:37:46;3.10;;;1.60;;
15104;SDS011;7653;48.994;9.212;2022-10-16T03:40:11;3.50;;;1.37;;
15104;SDS011;7653;48.994;9.212;2022-10-16T03:42:37;2.57;;;1.67;;
15104;SDS011;7653;48.994;9.212;2022-10-16T03:45:03;2.93;;;1.77;;
15104;SDS011;7653;48.994;9.212;2022-10-16T03:47:29;3.97;;;1.60;;
15104;SDS011;7653;48.994;9.212;2022-10-16T03:49:57;4.53;;;1.80;;
15104;SDS011;7653;48.994;9.212;2022-10-16T03:52:23;2.50;;;1.20;;
15104;SDS011;7653;48.994;9.212;2022-10-16T03:54:49;1.63;;;1.37;;
15104;SDS011;7653;48.994;9.212;2022-10-16T03:57:15;2.13;;;1.50;;
15104;SDS011;7653;48.994;9.212;2022-10-16T03:59:40;2.97;;;1.60;;
15104;SDS011;7653;48.994;9.212;2022-10-16T04:02:06;4.73;;;1.70;;
15104;SDS011;7653;48.994;9.212;2022-10-16T04:04:31;3.07;;;1.77;;
15104;SDS011;7653;48.994;9.212;2022-10-16T04:06:57;1.50;;;1.40;;
15104;SDS011;7653;48.994;9.212;2022-10-16T04:09:22;2.43;;;1.83;;
15104;SDS011;7653;48.994;9.212;2022-10-16T04:11:48;3.13;;;1.67;;
15104;SDS011;7653;48.994;9.212;2022-10-16T04:14:13;5.57;;;1.70;;
15104;SDS011;7653;48.994;9.212;2022-10-16T04:16:39;3.03;;;1.77;;
15104;SDS011;7653;48.994;9.212;2022-10-16T04:19:05;3.37;;;1.43;;
15104;SDS011;7653;48.994;9.212;2022-10-16T04:21:31;4.70;;;1.60;;
15104;SDS011;7653;48.994;9.212;2022-10-16T04:23:56;2.27;;;1.40;;
15104;SDS011;7653;48.994;9.212;2022-10-16T04:26:22;3.07;;;1.60;;
15104;SDS011;7653;48.994;9.212;2022-10-16T04:28:48;2.17;;;1.70;;
15104;SDS011;7653;48.994;9.212;2022-10-16T04:31:14;3.03;;;1.50;;
15104;SDS011;7653;48.994;9.212;2022-10-16T04:33:41;2.00;;;1.50;;
15104;SDS011;7653;48.994;9.212;2022-10-16T04:36:08;2.97;;;1.47;;
15104;SDS011;7653;48.994;9.212;2022-10-16T04:38:33;4.00;;;2.07;;
15104;SDS011;7653;48.994;9.212;2022-10-16T04:40:59;2.63;;;1.60;;
15104;SDS011;7653;48.994;9.212;2022-10-16T04:43:25;4.63;;;1.70;;
15104;SDS011;7653;48.994;9.212;2022-10-16T04:45:51;2.80;;;1.60;;
15104;SDS011;7653;48.994;9.212;2022-10-16T04:48:17;2.33;;;1.70;;
15104;SDS011;7653;48.994;9.212;2022-10-16T04:50:43;2.77;;;1.80;;
15104;SDS011;7653;48.994;9.212;2022-10-16T04:53:09;4.13;;;3.27;;
15104;SDS011;7653;48.994;9.212;2022-10-16T04:55:34;2.97;;;1.63;;
15104;SDS011;7653;48.994;9.212;2022-10-16T04:58:00;5.53;;;1.80;;
15104;SDS011;7653;48.994;9.212;2022-10-16T05:00:25;4.73;;;1.60;;
15104;SDS011;7653;48.994;9.212;2022-10-16T05:02:51;3.73;;;1.80;;
15104;SDS011;7653;48.994;9.212;2022-10-16T05:05:18;4.43;;;1.80;;
15104;SDS011;7653;48.994;9.212;2022-10-16T05:07:44;3.53;;;1.50;;
15104;SDS011;7653;48.994;9.212;2022-10-16T05:10:11;3.17;;;1.80;;
15104;SDS011;7653;48.994;9.212;2022-10-16T05:12:36;2.33;;;1.93;;
15104;SDS011;7653;48.994;9.212;2022-10-16T05:15:02;14.13;;;7.77;;
15104;SDS011;7653;48.994;9.212;2022-10-16T05:17:28;11.37;;;9.07;;
15104;SDS011;7653;48.994;9.212;2022-10-16T05:19:54;10.20;;;6.27;;
15104;SDS011;7653;48.994;9.212;2022-10-16T05:22:19;7.57;;;4.10;;
15104;SDS011;7653;48.994;9.212;2022-10-16T05:24:45;6.53;;;3.67;;
15104;SDS011;7653;48.994;9.212;2022-10-16T05:27:12;4.93;;;2.80;;
15104;SDS011;7653;48.994;9.212;2022-10-16T05:29:44;4.13;;;2.60;;
15104;SDS011;7653;48.994;9.212;2022-10-16T05:32:11;2.33;;;2.10;;
15104;SDS011;7653;48.994;9.212;2022-10-16T05:34:37;4.03;;;2.00;;
15104;SDS011;7653;48.994;9.212;2022-10-16T05:37:04;3.60;;;1.90;;
15104;SDS011;7653;48.994;9.212;2022-10-16T05:39:30;7.70;;;1.60;;
15104;SDS011;7653;48.994;9.212;2022-10-16T05:41:56;4.13;;;1.67;;
15104;SDS011;7653;48.994;9.212;2022-10-16T05:44:22;5.23;;;1.50;;
15104;SDS011;7653;48.994;9.212;2022-10-16T05:46:47;4.00;;;1.93;;
15104;SDS011;7653;48.994;9.212;2022-10-16T05:49:13;5.17;;;1.70;;
15104;SDS011;7653;48.994;9.212;2022-10-16T05:51:38;3.17;;;1.97;;
15104;SDS011;7653;48.994;9.212;2022-10-16T05:54:04;3.47;;;1.70;;
15104;SDS011;7653;48.994;9.212;2022-10-16T05:56:30;1.63;;;1.53;;
15104;SDS011;7653;48.994;9.212;2022-10-16T05:58:56;5.07;;;1.73;;
15104;SDS011;7653;48.994;9.212;2022-10-16T06:01:21;3.07;;;1.70;;
15104;SDS011;7653;48.994;9.212;2022-10-16T06:03:49;4.63;;;1.33;;
15104;SDS011;7653;48.994;9.212;2022-10-16T06:06:16;5.03;;;1.70;;
15104;SDS011;7653;48.994;9.212;2022-10-16T06:08:45;5.93;;;1.93;;
15104;SDS011;7653;48.994;9.212;2022-10-16T06:11:12;7.70;;;1.80;;
15104;SDS011;7653;48.994;9.212;2022-10-16T06:13:39;4.20;;;1.70;;
15104;SDS011;7653;48.994;9.212;2022-10-16T06:16:11;7.37;;;2.17;;
15104;SDS011;7653;48.994;9.212;2022-10-16T06:18:37;2.83;;;1.60;;
15104;SDS011;7653;48.994;9.212;2022-10-16T06:21:11;2.70;;;1.60;;
15104;SDS011;7653;48.994;9.212;2022-10-16T06:23:39;2.60;;;1.57;;
15104;SDS011;7653;48.994;9.212;2022-10-16T06:26:08;3.20;;;1.60;;
15104;SDS011;7653;48.994;9.212;2022-10-16T06:28:36;6.07;;;1.60;;
15104;SDS011;7653;48.994;9.212;2022-10-16T06:31:03;4.47;;;1.60;;
15104;SDS011;7653;48.994;9.212;2022-10-16T06:33:30;5.80;;;1.80;;
15104;SDS011;7653;48.994;9.212;2022-10-16T06:36:06;1.83;;;1.50;;
15104;SDS011;7653;48.994;9.212;2022-10-16T06:38:40;2.23;;;1.60;;
15104;SDS011;7653;48.994;9.212;2022-10-16T06:41:06;4.73;;;1.87;;
15104;SDS011;7653;48.994;9.212;2022-10-16T06:43:33;3.00;;;1.40;;
15104;SDS011;7653;48.994;9.212;2022-10-16T06:46:02;4.83;;;1.80;;
15104;SDS011;7653;48.994;9.212;2022-10-16T06:48:29;5.77;;;1.67;;
15104;SDS011;7653;48.994;9.212;2022-10-16T06:53:28;3.27;;;2.10;;
15104;SDS011;7653;48.994;9.212;2022-10-16T06:55:56;4.43;;;2.10;;
15104;SDS011;7653;48.994;9.212;2022-10-16T06:58:23;6.27;;;2.27;;
15104;SDS011;7653;48.994;9.212;2022-10-16T07:00:54;4.47;;;1.73;;
15104;SDS011;7653;48.994;9.212;2022-10-16T07:03:21;4.53;;;2.10;;
15104;SDS011;7653;48.994;9.212;2022-10-16T07:05:47;2.83;;;1.60;;
15104;SDS011;7653;48.994;9.212;2022-10-16T07:08:13;6.80;;;2.20;;
15104;SDS011;7653;48.994;9.212;2022-10-16T07:10:38;3.63;;;1.73;;
15104;SDS011;7653;48.994;9.212;2022-10-16T07:13:04;6.20;;;1.80;;
15104;SDS011;7653;48.994;9.212;2022-10-16T07:15:30;3.50;;;1.70;;
15104;SDS011;7653;48.994;9.212;2022-10-16T07:17:56;3.67;;;1.87;;
15104;SDS011;7653;48.994;9.212;2022-10-16T07:20:21;2.23;;;1.50;;
15104;SDS011;7653;48.994;9.212;2022-10-16T07:22:47;2.13;;;1.70;;
15104;SDS011;7653;48.994;9.212;2022-10-16T07:25:12;2.90;;;1.50;;
15104;SDS011;7653;48.994;9.212;2022-10-16T07:27:38;3.80;;;1.77;;
15104;SDS011;7653;48.994;9.212;2022-10-16T07:30:04;3.77;;;1.67;;
15104;SDS011;7653;48.994;9.212;2022-10-16T07:32:31;3.83;;;1.50;;
15104;SDS011;7653;48.994;9.212;2022-10-16T07:34:58;3.37;;;1.60;;
15104;SDS011;7653;48.994;9.212;2022-10-16T07:37:23;3.23;;;1.63;;
15104;SDS011;7653;48.994;9.212;2022-10-16T07:39:49;1.83;;;1.40;;
15104;SDS011;7653;48.994;9.212;2022-10-16T07:42:14;2.97;;;1.50;;
15104;SDS011;7653;48.994;9.212;2022-10-16T07:44:40;2.70;;;1.67;;
15104;SDS011;7653;48.994;9.212;2022-10-16T07:47:06;6.27;;;1.97;;
15104;SDS011;7653;48.994;9.212;2022-10-16T07:49:32;3.43;;;1.50;;
15104;SDS011;7653;48.994;9.212;2022-10-16T07:51:57;2.30;;;1.73;;
15104;SDS011;7653;48.994;9.212;2022-10-16T07:54:24;2.20;;;1.50;;
15104;SDS011;7653;48.994;9.212;2022-10-16T07:56:49;4.50;;;2.20;;
15104;SDS011;7653;48.994;9.212;2022-10-16T07:59:15;3.60;;;2.27;;
15104;SDS011;7653;48.994;9.212;2022-10-16T08:01:42;4.17;;;1.87;;
15104;SDS011;7653;48.994;9.212;2022-10-16T08:04:07;2.33;;;1.93;;
15104;SDS011;7653;48.994;9.212;2022-10-16T08:06:37;9.43;;;2.30;;
15104;SDS011;7653;48.994;9.212;2022-10-16T08:09:05;3.00;;;1.90;;
15104;SDS011;7653;48.994;9.212;2022-10-16T08:11:33;2.90;;;1.90;;
15104;SDS011;7653;48.994;9.212;2022-10-16T08:14:01;3.13;;;1.60;;
15104;SDS011;7653;48.994;9.212;2022-10-16T08:16:27;4.13;;;1.60;;
15104;SDS011;7653;48.994;9.212;2022-10-16T08:18:53;3.70;;;2.00;;
15104;SDS011;7653;48.994;9.212;2022-10-16T08:21:21;5.10;;;2.13;;
15104;SDS011;7653;48.994;9.212;2022-10-16T08:23:48;3.00;;;1.93;;
15104;SDS011;7653;48.994;9.212;2022-10-16T08:26:15;2.90;;;1.50;;
15104;SDS011;7653;48.994;9.212;2022-10-16T08:28:41;2.97;;;1.97;;
15104;SDS011;7653;48.994;9.212;2022-10-16T08:31:14;5.33;;;1.90;;
15104;SDS011;7653;48.994;9.212;2022-10-16T08:33:42;5.33;;;2.10;;
15104;SDS011;7653;48.994;9.212;2022-10-16T08:36:11;3.40;;;1.60;;
15104;SDS011;7653;48.994;9.212;2022-10-16T08:38:39;2.30;;;1.63;;
15104;SDS011;7653;48.994;9.212;2022-10-16T08:46:55;3.97;;;1.73;;
15104;SDS011;7653;48.994;9.212;2022-10-16T08:49:21;1.83;;;1.50;;
15104;SDS011;7653;48.994;9.212;2022-10-16T08:51:49;3.57;;;1.50;;
15104;SDS011;7653;48.994;9.212;2022-10-16T08:57:07;3.00;;;1.63;;
15104;SDS011;7653;48.994;9.212;2022-10-16T08:59:35;3.43;;;1.80;;
15104;SDS011;7653;48.994;9.212;2022-10-16T09:02:01;3.77;;;1.67;;
15104;SDS011;7653;48.994;9.212;2022-10-16T09:13:01;6.57;;;1.40;;
15104;SDS011;7653;48.994;9.212;2022-10-16T09:21:38;2.17;;;1.43;;
15104;SDS011;7653;48.994;9.212;2022-10-16T09:26:49;1.83;;;1.30;;
15104;SDS011;7653;48.994;9.212;2022-10-16T09:29:19;2.30;;;1.27;;
15104;SDS011;7653;48.994;9.212;2022-10-16T09:31:50;2.20;;;1.40;;
15104;SDS011;7653;48.994;9.212;2022-10-16T09:34:30;1.73;;;1.13;;
15104;SDS011;7653;48.994;9.212;2022-10-16T09:37:03;1.87;;;1.30;;
15104;SDS011;7653;48.994;9.212;2022-10-16T09:39:30;3.27;;;1.47;;
15104;SDS011;7653;48.994;9.212;2022-10-16T09:42:09;5.70;;;1.30;;
15104;SDS011;7653;48.994;9.212;2022-10-16T09:44:39;2.27;;;1.20;;
15104;SDS011;7653;48.994;9.212;2022-10-16T09:47:23;2.13;;;1.30;;
15104;SDS011;7653;48.994;9.212;2022-10-16T09:50:13;3.47;;;1.20;;
15104;SDS011;7653;48.994;9.212;2022-10-16T09:52:47;1.90;;;1.23;;
15104;SDS011;7653;48.994;9.212;2022-10-16T09:55:14;1.67;;;1.17;;
15104;SDS011;7653;48.994;9.212;2022-10-16T09:57:51;3.23;;;1.30;;
15104;SDS011;7653;48.994;9.212;2022-10-16T10:00:17;1.67;;;1.30;;
15104;SDS011;7653;48.994;9.212;2022-10-16T10:02:44;7.13;;;1.80;;
15104;SDS011;7653;48.994;9.212;2022-10-16T10:05:21;4.40;;;1.77;;
15104;SDS011;7653;48.994;9.212;2022-10-16T10:07:52;2.83;;;1.33;;
15104;SDS011;7653;48.994;9.212;2022-10-16T10:10:24;3.70;;;1.17;;
15104;SDS011;7653;48.994;9.212;2022-10-16T10:12:55;2.07;;;1.33;;
15104;SDS011;7653;48.994;9.212;2022-10-16T10:15:21;1.53;;;1.30;;
15104;SDS011;7653;48.994;9.212;2022-10-16T10:20:23;3.47;;;1.37;;
15104;SDS011;7653;48.994;9.212;2022-10-16T10:22:52;2.17;;;1.13;;
15104;SDS011;7653;48.994;9.212;2022-10-16T10:47:04;1.73;;;1.23;;
15104;SDS011;7653;48.994;9.212;2022-10-16T11:05:52;1.60;;;1.23;;
15104;SDS011;7653;48.994;9.212;2022-10-16T11:08:27;5.60;;;1.10;;
15104;SDS011;7653;48.994;9.212;2022-10-16T11:11:17;2.47;;;1.17;;
15104;SDS011;7653;48.994;9.212;2022-10-16T11:13:47;1.77;;;1.30;;
15104;SDS011;7653;48.994;9.212;2022-10-16T11:16:35;2.43;;;1.27;;
15104;SDS011;7653;48.994;9.212;2022-10-16T11:27:08;3.10;;;1.20;;
15104;SDS011;7653;48.994;9.212;2022-10-16T11:29:39;2.30;;;1.30;;
15104;SDS011;7653;48.994;9.212;2022-10-16T11:32:25;3.63;;;1.50;;
15104;SDS011;7653;48.994;9.212;2022-10-16T11:35:05;1.83;;;1.30;;
15104;SDS011;7653;48.994;9.212;2022-10-16T11:37:43;3.07;;;1.13;;
15104;SDS011;7653;48.994;9.212;2022-10-16T11:40:22;2.67;;;1.57;;
15104;SDS011;7653;48.994;9.212;2022-10-16T11:42:54;1.97;;;1.13;;
15104;SDS011;7653;48.994;9.212;2022-10-16T11:45:36;1.40;;;1.17;;
15104;SDS011;7653;48.994;9.212;2022-10-16T11:50:52;2.43;;;1.20;;
15104;SDS011;7653;48.994;9.212;2022-10-16T11:53:23;1.80;;;1.10;;
15104;SDS011;7653;48.994;9.212;2022-10-16T11:55:50;3.00;;;1.10;;
15104;SDS011;7653;48.994;9.212;2022-10-16T11:58:19;6.10;;;1.20;;
15104;SDS011;7653;48.994;9.212;2022-10-16T12:07:06;5.33;;;1.30;;
15104;SDS011;7653;48.994;9.212;2022-10-16T12:09:36;1.70;;;1.30;;
15104;SDS011;7653;48.994;9.212;2022-10-16T12:12:04;1.97;;;1.00;;
15104;SDS011;7653;48.994;9.212;2022-10-16T12:14:37;5.00;;;1.23;;
15104;SDS011;7653;48.994;9.212;2022-10-16T12:17:26;1.73;;;1.30;;
15104;SDS011;7653;48.994;9.212;2022-10-16T12:22:42;2.03;;;1.00;;
15104;SDS011;7653;48.994;9.212;2022-10-16T12:25:35;3.13;;;1.20;;
15104;SDS011;7653;48.994;9.212;2022-10-16T12:28:26;2.60;;;1.27;;
15104;SDS011;7653;48.994;9.212;2022-10-16T12:30:59;2.83;;;1.23;;
15104;SDS011;7653;48.994;9.212;2022-10-16T12:33:30;2.13;;;1.30;;
15104;SDS011;7653;48.994;9.212;2022-10-16T12:35:59;4.33;;;1.30;;
15104;SDS011;7653;48.994;9.212;2022-10-16T12:43:28;4.23;;;1.53;;
15104;SDS011;7653;48.994;9.212;2022-10-16T12:48:35;1.13;;;1.03;;
15104;SDS011;7653;48.994;9.212;2022-10-16T12:53:37;1.30;;;1.10;;
15104;SDS011;7653;48.994;9.212;2022-10-16T12:59:04;1.77;;;1.10;;
15104;SDS011;7653;48.994;9.212;2022-10-16T13:09:46;1.00;;;1.00;;
15104;SDS011;7653;48.994;9.212;2022-10-16T13:18:14;1.20;;;1.10;;
15104;SDS011;7653;48.994;9.212;2022-10-16T13:28:40;3.33;;;1.10;;
15104;SDS011;7653;48.994;9.212;2022-10-16T13:31:10;1.00;;;1.00;;
15104;SDS011;7653;48.994;9.212;2022-10-16T13:33:52;2.53;;;1.20;;
15104;SDS011;7653;48.994;9.212;2022-10-16T13:38:47;1.00;;;1.00;;
15104;SDS011;7653;48.994;9.212;2022-10-16T13:41:15;1.50;;;0.83;;
15104;SDS011;7653;48.994;9.212;2022-10-16T13:43:51;2.33;;;0.93;;
15104;SDS011;7653;48.994;9.212;2022-10-16T13:46:21;2.93;;;1.20;;
15104;SDS011;7653;48.994;9.212;2022-10-16T13:49:02;3.40;;;1.07;;
15104;SDS011;7653;48.994;9.212;2022-10-16T13:51:30;3.72;;;1.33;;
15104;SDS011;7653;48.994;9.212;2022-10-16T13:53:57;3.10;;;1.02;;
15104;SDS011;7653;48.994;9.212;2022-10-16T13:56:27;3.25;;;1.17;;
15104;SDS011;7653;48.994;9.212;2022-10-16T13:59:02;2.10;;;1.13;;
15104;SDS011;7653;48.994;9.212;2022-10-16T14:01:51;3.45;;;1.08;;
15104;SDS011;7653;48.994;9.212;2022-10-16T14:04:20;1.92;;;1.10;;
15104;SDS011;7653;48.994;9.212;2022-10-16T14:06:49;3.05;;;1.20;;
15104;SDS011;7653;48.994;9.212;2022-10-16T14:09:24;1.20;;;0.90;;
15104;SDS011;7653;48.994;9.212;2022-10-16T14:11:53;1.73;;;1.02;;
15104;SDS011;7653;48.994;9.212;2022-10-16T14:14:24;1.35;;;0.95;;
15104;SDS011;7653;48.994;9.212;2022-10-16T14:16:52;2.05;;;1.00;;
15104;SDS011;7653;48.994;9.212;2022-10-16T14:21:47;1.23;;;0.90;;
15104;SDS011;7653;48.994;9.212;2022-10-16T14:26:56;3.13;;;1.00;;
15104;SDS011;7653;48.994;9.212;2022-10-16T14:29:22;1.10;;;1.00;;
15104;SDS011;7653;48.994;9.212;2022-10-16T14:37:01;3.05;;;1.00;;
15104;SDS011;7653;48.994;9.212;2022-10-16T14:39:48;1.58;;;1.17;;
15104;SDS011;7653;48.994;9.212;2022-10-16T14:42:18;1.95;;;1.10;;
15104;SDS011;7653;48.994;9.212;2022-10-16T14:44:48;2.97;;;1.13;;
15104;SDS011;7653;48.994;9.212;2022-10-16T14:47:18;1.98;;;0.90;;
15104;SDS011;7653;48.994;9.212;2022-10-16T14:49:51;1.58;;;1.10;;
15104;SDS011;7653;48.994;9.212;2022-10-16T14:52:19;1.50;;;0.98;;
15104;SDS011;7653;48.994;9.212;2022-10-16T14:54:47;2.35;;;1.13;;
15104;SDS011;7653;48.994;9.212;2022-10-16T14:57:22;2.05;;;1.05;;
15104;SDS011;7653;48.994;9.212;2022-10-16T14:59:49;3.87;;;1.33;;
15104;SDS011;7653;48.994;9.212;2022-10-16T15:04:54;1.77;;;0.90;;
15104;SDS011;7653;48.994;9.212;2022-10-16T15:07:20;1.97;;;1.40;;
15104;SDS011;7653;48.994;9.212;2022-10-16T15:09:46;2.47;;;1.30;;
15104;SDS011;7653;48.994;9.212;2022-10-16T15:12:12;2.60;;;1.42;;
15104;SDS011;7653;48.994;9.212;2022-10-16T15:14:50;2.65;;;1.17;;
15104;SDS011;7653;48.994;9.212;2022-10-16T15:17:15;4.13;;;1.30;;
15104;SDS011;7653;48.994;9.212;2022-10-16T15:19:41;1.80;;;1.02;;
15104;SDS011;7653;48.994;9.212;2022-10-16T15:22:08;2.33;;;1.00;;
15104;SDS011;7653;48.994;9.212;2022-10-16T15:24:36;2.67;;;1.10;;
15104;SDS011;7653;48.994;9.212;2022-10-16T15:27:01;2.13;;;1.10;;
15104;SDS011;7653;48.994;9.212;2022-10-16T15:29:27;2.38;;;1.10;;
15104;SDS011;7653;48.994;9.212;2022-10-16T15:31:53;3.10;;;1.37;;
15104;SDS011;7653;48.994;9.212;2022-10-16T15:34:18;2.10;;;1.20;;
15104;SDS011;7653;48.994;9.212;2022-10-16T15:36:44;1.45;;;1.08;;
15104;SDS011;7653;48.994;9.212;2022-10-16T15:39:14;2.23;;;1.30;;
15104;SDS011;7653;48.994;9.212;2022-10-16T15:41:42;3.95;;;1.15;;
15104;SDS011;7653;48.994;9.212;2022-10-16T15:44:08;3.30;;;1.17;;
15104;SDS011;7653;48.994;9.212;2022-10-16T15:46:34;2.83;;;1.20;;
15104;SDS011;7653;48.994;9.212;2022-10-16T15:49:01;4.37;;;1.40;;
15104;SDS011;7653;48.994;9.212;2022-10-16T15:51:27;3.37;;;1.40;;
15104;SDS011;7653;48.994;9.212;2022-10-16T15:53:55;3.33;;;1.30;;
15104;SDS011;7653;48.994;9.212;2022-10-16T15:56:21;2.03;;;1.20;;
15104;SDS011;7653;48.994;9.212;2022-10-16T15:58:48;4.40;;;1.67;;
15104;SDS011;7653;48.994;9.212;2022-10-16T16:01:13;4.80;;;1.60;;
15104;SDS011;7653;48.994;9.212;2022-10-16T16:03:39;2.90;;;1.40;;
15104;SDS011;7653;48.994;9.212;2022-10-16T16:06:07;6.37;;;1.77;;
15104;SDS011;7653;48.994;9.212;2022-10-16T16:08:34;4.33;;;1.57;;
15104;SDS011;7653;48.994;9.212;2022-10-16T16:11:02;3.90;;;1.67;;
15104;SDS011;7653;48.994;9.212;2022-10-16T16:13:28;4.67;;;1.40;;
15104;SDS011;7653;48.994;9.212;2022-10-16T16:15:54;4.50;;;1.40;;
15104;SDS011;7653;48.994;9.212;2022-10-16T16:18:20;6.60;;;1.57;;
15104;SDS011;7653;48.994;9.212;2022-10-16T16:20:46;3.73;;;1.60;;
15104;SDS011;7653;48.994;9.212;2022-10-16T16:23:12;3.93;;;1.73;;
15104;SDS011;7653;48.994;9.212;2022-10-16T16:25:38;2.30;;;1.70;;
15104;SDS011;7653;48.994;9.212;2022-10-16T16:28:03;3.60;;;1.30;;
15104;SDS011;7653;48.994;9.212;2022-10-16T16:30:29;2.37;;;1.40;;
15104;SDS011;7653;48.994;9.212;2022-10-16T16:32:54;2.40;;;1.47;;
15104;SDS011;7653;48.994;9.212;2022-10-16T16:35:20;3.90;;;1.70;;
15104;SDS011;7653;48.994;9.212;2022-10-16T16:37:46;2.97;;;1.43;;
15104;SDS011;7653;48.994;9.212;2022-10-16T16:40:12;2.97;;;1.70;;
15104;SDS011;7653;48.994;9.212;2022-10-16T16:42:38;2.73;;;1.53;;
15104;SDS011;7653;48.994;9.212;2022-10-16T16:45:04;4.33;;;1.63;;
15104;SDS011;7653;48.994;9.212;2022-10-16T16:47:30;5.33;;;1.67;;
15104;SDS011;7653;48.994;9.212;2022-10-16T16:49:56;3.87;;;1.53;;
15104;SDS011;7653;48.994;9.212;2022-10-16T16:52:21;4.03;;;1.60;;
15104;SDS011;7653;48.994;9.212;2022-10-16T16:54:47;2.87;;;2.10;;
15104;SDS011;7653;48.994;9.212;2022-10-16T16:57:17;4.90;;;2.90;;
15104;SDS011;7653;48.994;9.212;2022-10-16T16:59:44;4.87;;;2.07;;
15104;SDS011;7653;48.994;9.212;2022-10-16T17:02:09;3.87;;;1.50;;
15104;SDS011;7653;48.994;9.212;2022-10-16T17:04:35;5.67;;;1.43;;
15104;SDS011;7653;48.994;9.212;2022-10-16T17:07:00;6.10;;;1.53;;
15104;SDS011;7653;48.994;9.212;2022-10-16T17:09:26;5.60;;;1.90;;
15104;SDS011;7653;48.994;9.212;2022-10-16T17:11:52;5.87;;;1.63;;
15104;SDS011;7653;48.994;9.212;2022-10-16T17:14:18;3.50;;;1.67;;
15104;SDS011;7653;48.994;9.212;2022-10-16T17:16:44;4.63;;;1.67;;
15104;SDS011;7653;48.994;9.212;2022-10-16T17:19:12;5.73;;;1.63;;
15104;SDS011;7653;48.994;9.212;2022-10-16T17:21:39;4.33;;;1.83;;
15104;SDS011;7653;48.994;9.212;2022-10-16T17:24:05;4.83;;;1.80;;
15104;SDS011;7653;48.994;9.212;2022-10-16T17:26:32;3.27;;;1.60;;
15104;SDS011;7653;48.994;9.212;2022-10-16T17:29:02;4.80;;;1.60;;
15104;SDS011;7653;48.994;9.212;2022-10-16T17:31:35;2.53;;;1.60;;
15104;SDS011;7653;48.994;9.212;2022-10-16T17:34:01;5.50;;;1.73;;
15104;SDS011;7653;48.994;9.212;2022-10-16T17:36:30;5.13;;;2.23;;
15104;SDS011;7653;48.994;9.212;2022-10-16T17:38:59;6.80;;;2.10;;
15104;SDS011;7653;48.994;9.212;2022-10-16T17:41:28;4.60;;;2.30;;
15104;SDS011;7653;48.994;9.212;2022-10-16T17:43:55;3.17;;;2.20;;
15104;SDS011;7653;48.994;9.212;2022-10-16T17:46:22;5.50;;;2.30;;
15104;SDS011;7653;48.994;9.212;2022-10-16T17:48:49;5.73;;;1.90;;
15104;SDS011;7653;48.994;9.212;2022-10-16T17:51:17;4.67;;;1.87;;
15104;SDS011;7653;48.994;9.212;2022-10-16T17:53:49;5.23;;;1.70;;
15104;SDS011;7653;48.994;9.212;2022-10-16T17:56:16;6.67;;;2.23;;
15104;SDS011;7653;48.994;9.212;2022-10-16T17:58:42;5.53;;;2.77;;